Time;durP1;ratioP1;P1;durP2;ratioP2;P2;SDS_P1;SDS_P2;PMS_P1;PMS_P2;Temp;Humidity;BMP_temperature;BMP_pressure;BME280_temperature;BME280_humidity;BME280_pressure;Samples;Min_cycle;Max_cycle;Signal;HPM_P1;HPM_P2
2023/07/27 00:00:12;;;;;;;;;;;;;;;;;;1882684;28;7090;-62
2023/07/27 00:01:10;;;;;;;;;;;;;;;;;;1882023;28;7048;-62
2023/07/27 00:02:07;;;;;;;;;;;;;;;;;;1884465;28;7025;-62
2023/07/27 00:03:05;;;;;;;;;;;;;;;;;;1882630;28;7074;-63
2023/07/27 00:04:02;;;;;;;;;;;;;;;;;;1881942;28;7772;-64
2023/07/27 00:04:59;;;;;;;;;;;;;;;;;;1882078;28;7109;-62
2023/07/27 00:05:57;;;;;;;;;;;;;;;;;;1887591;28;8036;-63
2023/07/27 00:06:54;;;;;;;;;;;;;;;;;;1889835;28;7042;-62
2023/07/27 00:07:52;;;;;;;;;;;;;;;;;;1889155;28;7022;-62
2023/07/27 00:08:49;;;;;;;;;;;;;;;;;;1889134;28;7018;-62
2023/07/27 00:09:46;;;;;;;;;;;;;;;;;;1889169;28;7356;-62
2023/07/27 00:10:44;;;;;;;;;;;;;;;;;;1889088;28;8011;-62
2023/07/27 00:11:41;;;;;;;;;;;;;;;;;;1889557;28;8111;-62
2023/07/27 00:12:39;;;;;;;;;;;;;;;;;;1889394;28;7132;-63
2023/07/27 00:13:36;;;;;;;;;;;;;;;;;;1883494;28;7010;-62
2023/07/27 00:14:34;;;;;;;;;;;;;;;;;;1881973;28;7094;-62
2023/07/27 00:15:32;;;;;;;;;;;;;;;;;;1882237;28;7048;-62
2023/07/27 00:16:29;;;;;;;;;;;;;;;;;;1881459;28;7092;-62
2023/07/27 00:17:26;;;;;;;;;;;;;;;;;;1881275;28;7937;-61
2023/07/27 00:18:24;;;;;;;;;;;;;;;;;;1881924;28;7062;-62
2023/07/27 00:19:21;;;;;;;;;;;;;;;;;;1881903;28;7414;-62
2023/07/27 00:20:19;;;;;;;;;;;;;;;;;;1888269;28;7050;-62
2023/07/27 00:21:16;;;;;;;;;;;;;;;;;;1889120;28;8164;-62
2023/07/27 00:22:13;;;;;;;;;;;;;;;;;;1889358;28;7030;-62
2023/07/27 00:23:11;;;;;;;;;;;;;;;;;;1886306;28;7021;-62
2023/07/27 00:24:08;;;;;;;;;;;;;;;;;;1882078;28;7201;-62
2023/07/27 00:25:06;;;;;;;;;;;;;;;;;;1882153;28;7372;-62
2023/07/27 00:26:03;;;;;;;;;;;;;;;;;;1882282;28;7041;-62
2023/07/27 00:27:01;;;;;;;;;;;;;;;;;;1882669;28;7009;-65
2023/07/27 00:27:58;;;;;;;;;;;;;;;;;;1882440;28;7009;-62
2023/07/27 00:28:55;;;;;;;;;;;;;;;;;;1889741;28;7149;-61
2023/07/27 00:29:53;;;;;;;;;;;;;;;;;;1888943;28;7112;-62
2023/07/27 00:30:53;;;;;;;;;;;;;;;;;;1886552;28;7078;-62
2023/07/27 00:31:51;;;;;;;;;;;;;;;;;;1882176;28;7013;-62
2023/07/27 00:32:49;;;;;;;;;;;;;;;;;;1882290;28;8189;-61
2023/07/27 00:33:46;;;;;;;;;;;;;;;;;;1885285;28;7014;-62
2023/07/27 00:34:43;;;;;;;;;;;;;;;;;;1881900;28;8080;-62
2023/07/27 00:35:41;;;;;;;;;;;;;;;;;;1881941;28;7081;-62
2023/07/27 00:36:38;;;;;;;;;;;;;;;;;;1881947;28;7025;-62
2023/07/27 00:37:36;;;;;;;;;;;;;;;;;;1881793;28;7006;-62
2023/07/27 00:38:33;;;;;;;;;;;;;;;;;;1881980;28;7029;-62
2023/07/27 00:39:31;;;;;;;;;;;;;;;;;;1882155;28;7021;-62
2023/07/27 00:40:28;;;;;;;;;;;;;;;;;;1884433;28;7128;-62
2023/07/27 00:41:25;;;;;;;;;;;;;;;;;;1887464;28;7132;-62
2023/07/27 00:42:23;;;;;;;;;;;;;;;;;;1881530;28;8027;-63
2023/07/27 00:43:20;;;;;;;;;;;;;;;;;;1881942;28;7100;-61
2023/07/27 00:44:18;;;;;;;;;;;;;;;;;;1889020;28;8100;-62
2023/07/27 00:45:15;;;;;;;;;;;;;;;;;;1896092;28;7327;-62
2023/07/27 00:46:13;;;;;;;;;;;;;;;;;;1896162;28;7136;-62
2023/07/27 00:47:11;;;;;;;;;;;;;;;;;;1884037;28;7158;-62
2023/07/27 00:48:11;;;;;;;;;;;;;;;;;;1880247;28;7227;-63
2023/07/27 00:49:08;;;;;;;;;;;;;;;;;;1882071;28;7006;-62
2023/07/27 00:50:06;;;;;;;;;;;;;;;;;;1881767;28;7041;-62
2023/07/27 00:51:03;;;;;;;;;;;;;;;;;;1881995;28;7093;-62
2023/07/27 00:52:06;;;;;;;;;;;;;;;;;;1881869;28;7105;-62
2023/07/27 00:53:05;;;;;;;;;;;;;;;;;;1881876;28;7188;-62
2023/07/27 00:54:04;;;;;;;;;;;;;;;;;;1882020;28;7098;-62
2023/07/27 00:55:02;;;;;;;;;;;;;;;;;;1889088;28;7046;-62
2023/07/27 00:56:00;;;;;;;;;;;;;;;;;;1883825;28;7013;-62
2023/07/27 00:56:58;;;;;;;;;;;;;;;;;;1883372;28;8027;-62
2023/07/27 00:57:56;;;;;;;;;;;;;;;;;;1882982;28;7341;-62
2023/07/27 00:58:54;;;;;;;;;;;;;;;;;;1881728;28;7029;-63
2023/07/27 00:59:52;;;;;;;;;;;;;;;;;;1884025;28;7066;-62
2023/07/27 01:00:49;;;;;;;;;;;;;;;;;;1883406;28;7100;-62
2023/07/27 01:01:46;;;;;;;;;;;;;;;;;;1885356;28;7022;-62
2023/07/27 01:02:45;;;;;;;;;;;;;;;;;;1886620;28;8030;-62
2023/07/27 01:03:42;;;;;;;;;;;;;;;;;;1882283;28;7298;-63
2023/07/27 01:04:40;;;;;;;;;;;;;;;;;;1883518;28;7046;-62
2023/07/27 01:05:38;;;;;;;;;;;;;;;;;;1883586;28;7022;-62
2023/07/27 01:06:35;;;;;;;;;;;;;;;;;;1883233;28;7931;-62
2023/07/27 01:07:33;;;;;;;;;;;;;;;;;;1883402;28;7017;-62
2023/07/27 01:08:31;;;;;;;;;;;;;;;;;;1882224;28;7297;-62
2023/07/27 01:09:28;;;;;;;;;;;;;;;;;;1883858;28;7117;-62
2023/07/27 01:10:39;;;;;;;;;;;;;;;;;;1886473;28;7108;-62
2023/07/27 01:11:46;;;;;;;;;;;;;;;;;;1891110;28;8758;-62
2023/07/27 01:12:44;;;;;;;;;;;;;;;;;;1891093;28;7325;-62
2023/07/27 01:13:49;;;;;;;;;;;;;;;;;;1883877;28;7014;-62
2023/07/27 01:14:54;;;;;;;;;;;;;;;;;;1883279;28;7045;-62
2023/07/27 01:15:58;;;;;;;;;;;;;;;;;;1883047;28;7013;-62
2023/07/27 01:17:01;;;;;;;;;;;;;;;;;;1883456;28;7014;-62
2023/07/27 01:18:04;;;;;;;;;;;;;;;;;;1883538;28;7029;-62
2023/07/27 01:19:10;;;;;;;;;;;;;;;;;;1883408;28;7092;-62
2023/07/27 01:20:08;;;;;;;;;;;;;;;;;;1883063;28;7017;-62
2023/07/27 01:21:28;;;;;;;;;;;;;;;;;;1883391;28;7156;-62
2023/07/27 01:22:32;;;;;;;;;;;;;;;;;;1882955;28;7014;-62
2023/07/27 01:23:33;;;;;;;;;;;;;;;;;;1883019;28;7021;-62
2023/07/27 01:24:50;;;;;;;;;;;;;;;;;;1890767;28;7164;-63
2023/07/27 01:25:51;;;;;;;;;;;;;;;;;;1890672;28;7929;-62
2023/07/27 01:27:02;;;;;;;;;;;;;;;;;;1889081;28;7998;-62
2023/07/27 01:28:21;;;;;;;;;;;;;;;;;;1883691;28;7013;-62
2023/07/27 01:29:28;;;;;;;;;;;;;;;;;;1883285;28;8122;-61
2023/07/27 01:30:28;;;;;;;;;;;;;;;;;;1883287;28;7105;-62
2023/07/27 01:31:27;;;;;;;;;;;;;;;;;;1888632;28;7025;-62
2023/07/27 01:32:28;;;;;;;;;;;;;;;;;;1890489;28;7866;-62
2023/07/27 01:33:30;;;;;;;;;;;;;;;;;;1890918;28;7360;-62
2023/07/27 01:34:33;;;;;;;;;;;;;;;;;;1891975;28;7009;-62
2023/07/27 01:35:35;;;;;;;;;;;;;;;;;;1897290;28;7010;-63
2023/07/27 01:36:38;;;;;;;;;;;;;;;;;;1890270;28;7014;-62
2023/07/27 01:37:39;;;;;;;;;;;;;;;;;;1890287;28;7081;-62
2023/07/27 01:38:39;;;;;;;;;;;;;;;;;;1891221;28;7033;-62
2023/07/27 01:39:50;;;;;;;;;;;;;;;;;;1882892;28;8043;-62
2023/07/27 01:40:49;;;;;;;;;;;;;;;;;;1882668;28;7033;-62
2023/07/27 01:41:48;;;;;;;;;;;;;;;;;;1887856;28;7140;-62
2023/07/27 01:42:47;;;;;;;;;;;;;;;;;;1882916;28;7153;-62
2023/07/27 01:43:46;;;;;;;;;;;;;;;;;;1883203;28;7009;-62
2023/07/27 01:44:44;;;;;;;;;;;;;;;;;;1885424;28;7006;-62
2023/07/27 01:45:43;;;;;;;;;;;;;;;;;;1890472;28;7406;-62
2023/07/27 01:46:43;;;;;;;;;;;;;;;;;;1890559;28;7316;-62
2023/07/27 01:47:43;;;;;;;;;;;;;;;;;;1885246;28;7013;-62
2023/07/27 01:48:42;;;;;;;;;;;;;;;;;;1883357;28;7093;-62
2023/07/27 01:49:43;;;;;;;;;;;;;;;;;;1883348;28;7013;-62
2023/07/27 01:50:41;;;;;;;;;;;;;;;;;;1883255;28;8027;-62
2023/07/27 01:51:41;;;;;;;;;;;;;;;;;;1883041;28;7120;-62
2023/07/27 01:52:39;;;;;;;;;;;;;;;;;;1883168;28;7013;-62
2023/07/27 01:53:41;;;;;;;;;;;;;;;;;;1882822;28;7093;-61
2023/07/27 01:54:39;;;;;;;;;;;;;;;;;;1883015;28;7534;-62
2023/07/27 01:55:37;;;;;;;;;;;;;;;;;;1882909;28;7939;-62
2023/07/27 01:56:36;;;;;;;;;;;;;;;;;;1882844;28;8116;-62
2023/07/27 01:57:35;;;;;;;;;;;;;;;;;;1883032;28;7065;-62
2023/07/27 01:58:34;;;;;;;;;;;;;;;;;;1882934;28;7134;-62
2023/07/27 01:59:33;;;;;;;;;;;;;;;;;;1883036;28;7133;-62
2023/07/27 02:00:31;;;;;;;;;;;;;;;;;;1883565;28;7309;-62
2023/07/27 02:01:29;;;;;;;;;;;;;;;;;;1883437;28;7017;-62
2023/07/27 02:02:27;;;;;;;;;;;;;;;;;;1889141;28;7046;-62
2023/07/27 02:03:25;;;;;;;;;;;;;;;;;;1890554;28;7291;-62
2023/07/27 02:04:23;;;;;;;;;;;;;;;;;;1882936;28;7022;-62
2023/07/27 02:05:24;;;;;;;;;;;;;;;;;;1890520;28;7025;-62
2023/07/27 02:06:22;;;;;;;;;;;;;;;;;;1890435;28;7021;-62
2023/07/27 02:07:19;;;;;;;;;;;;;;;;;;1882046;28;7013;-62
2023/07/27 02:08:16;;;;;;;;;;;;;;;;;;1883213;28;7018;-62
2023/07/27 02:09:14;;;;;;;;;;;;;;;;;;1886173;28;7029;-62
2023/07/27 02:10:13;;;;;;;;;;;;;;;;;;1890209;28;8102;-62
2023/07/27 02:11:13;;;;;;;;;;;;;;;;;;1890338;28;7088;-62
2023/07/27 02:12:18;;;;;;;;;;;;;;;;;;1886937;28;7014;-62
2023/07/27 02:13:39;;;;;;;;;;;;;;;;;;1880988;28;7032;-62
2023/07/27 02:14:49;;;;;;;;;;;;;;;;;;1888826;28;8977;-62
2023/07/27 02:15:51;;;;;;;;;;;;;;;;;;1883515;28;8084;-62
2023/07/27 02:17:00;;;;;;;;;;;;;;;;;;1890364;28;7932;-62
2023/07/27 02:18:08;;;;;;;;;;;;;;;;;;1889729;28;7113;-62
2023/07/27 02:19:06;;;;;;;;;;;;;;;;;;1889920;28;7050;-62
2023/07/27 02:20:10;;;;;;;;;;;;;;;;;;1889996;28;8491;-62
2023/07/27 02:21:08;;;;;;;;;;;;;;;;;;1890705;28;8503;-63
2023/07/27 02:22:08;;;;;;;;;;;;;;;;;;1890536;28;7010;-62
2023/07/27 02:23:07;;;;;;;;;;;;;;;;;;1890184;28;8123;-62
2023/07/27 02:24:05;;;;;;;;;;;;;;;;;;1890090;28;7010;-62
2023/07/27 02:25:04;;;;;;;;;;;;;;;;;;1885234;28;7014;-62
2023/07/27 02:26:02;;;;;;;;;;;;;;;;;;1882433;28;7127;-62
2023/07/27 02:26:59;;;;;;;;;;;;;;;;;;1883171;28;7120;-62
2023/07/27 02:27:57;;;;;;;;;;;;;;;;;;1882634;28;8023;-62
2023/07/27 02:28:56;;;;;;;;;;;;;;;;;;1887630;28;7404;-62
2023/07/27 02:29:53;;;;;;;;;;;;;;;;;;1883015;28;7097;-62
2023/07/27 02:30:51;;;;;;;;;;;;;;;;;;1882379;28;8027;-62
2023/07/27 02:31:48;;;;;;;;;;;;;;;;;;1882918;28;7053;-62
2023/07/27 02:32:46;;;;;;;;;;;;;;;;;;1882898;28;7092;-62
2023/07/27 02:33:43;;;;;;;;;;;;;;;;;;1884077;28;7150;-61
2023/07/27 02:34:40;;;;;;;;;;;;;;;;;;1890292;28;7026;-62
2023/07/27 02:35:38;;;;;;;;;;;;;;;;;;1890360;28;7304;-62
2023/07/27 02:36:35;;;;;;;;;;;;;;;;;;1890363;28;7108;-62
2023/07/27 02:37:33;;;;;;;;;;;;;;;;;;1890090;28;7108;-62
2023/07/27 02:38:30;;;;;;;;;;;;;;;;;;1889107;28;7377;-62
2023/07/27 02:39:28;;;;;;;;;;;;;;;;;;1883045;28;7369;-62
2023/07/27 02:40:25;;;;;;;;;;;;;;;;;;1887257;28;7093;-61
2023/07/27 02:41:22;;;;;;;;;;;;;;;;;;1882113;28;7142;-62
2023/07/27 02:42:22;;;;;;;;;;;;;;;;;;1882604;28;8008;-62
2023/07/27 02:43:20;;;;;;;;;;;;;;;;;;1882890;28;7014;-63
2023/07/27 02:44:17;;;;;;;;;;;;;;;;;;1883356;28;8039;-62
2023/07/27 02:45:15;;;;;;;;;;;;;;;;;;1883104;28;7138;-63
2023/07/27 02:46:12;;;;;;;;;;;;;;;;;;1884184;28;7013;-62
2023/07/27 02:47:09;;;;;;;;;;;;;;;;;;1888245;28;7038;-62
2023/07/27 02:48:07;;;;;;;;;;;;;;;;;;1882641;28;7210;-62
2023/07/27 02:49:04;;;;;;;;;;;;;;;;;;1883778;28;7050;-62
2023/07/27 02:50:01;;;;;;;;;;;;;;;;;;1888157;28;7013;-63
2023/07/27 02:50:59;;;;;;;;;;;;;;;;;;1887736;28;7092;-62
2023/07/27 02:51:56;;;;;;;;;;;;;;;;;;1890203;28;7284;-62
2023/07/27 02:52:54;;;;;;;;;;;;;;;;;;1888063;28;7965;-62
2023/07/27 02:53:51;;;;;;;;;;;;;;;;;;1887804;28;7013;-62
2023/07/27 02:54:49;;;;;;;;;;;;;;;;;;1882538;28;7066;-62
2023/07/27 02:55:59;;;;;;;;;;;;;;;;;;1882783;28;8101;-62
2023/07/27 02:56:57;;;;;;;;;;;;;;;;;;1881935;28;7006;-62
2023/07/27 02:57:54;;;;;;;;;;;;;;;;;;1881973;28;7400;-62
2023/07/27 02:58:51;;;;;;;;;;;;;;;;;;1882663;28;8006;-62
2023/07/27 02:59:49;;;;;;;;;;;;;;;;;;1882789;28;7108;-62
2023/07/27 03:00:50;;;;;;;;;;;;;;;;;;1882458;28;8083;-62
2023/07/27 03:01:48;;;;;;;;;;;;;;;;;;1884847;28;7126;-62
2023/07/27 03:02:45;;;;;;;;;;;;;;;;;;1882033;28;8069;-62
2023/07/27 03:03:42;;;;;;;;;;;;;;;;;;1882497;28;7022;-62
2023/07/27 03:04:40;;;;;;;;;;;;;;;;;;1882841;28;7340;-62
2023/07/27 03:05:37;;;;;;;;;;;;;;;;;;1882971;28;7061;-62
2023/07/27 03:06:35;;;;;;;;;;;;;;;;;;1882505;28;7046;-62
2023/07/27 03:07:33;;;;;;;;;;;;;;;;;;1883234;28;7054;-62
2023/07/27 03:08:30;;;;;;;;;;;;;;;;;;1890335;28;8027;-62
2023/07/27 03:09:28;;;;;;;;;;;;;;;;;;1890381;28;7132;-62
2023/07/27 03:10:25;;;;;;;;;;;;;;;;;;1890070;28;7085;-62
2023/07/27 03:11:23;;;;;;;;;;;;;;;;;;1889833;28;9338;-63
2023/07/27 03:12:20;;;;;;;;;;;;;;;;;;1890276;28;8059;-62
2023/07/27 03:13:17;;;;;;;;;;;;;;;;;;1886059;28;8495;-62
2023/07/27 03:14:15;;;;;;;;;;;;;;;;;;1882738;28;7063;-62
2023/07/27 03:15:12;;;;;;;;;;;;;;;;;;1882832;28;7046;-63
2023/07/27 03:16:10;;;;;;;;;;;;;;;;;;1882353;28;7335;-62
2023/07/27 03:17:08;;;;;;;;;;;;;;;;;;1882711;28;8165;-63
2023/07/27 03:18:05;;;;;;;;;;;;;;;;;;1882463;28;7014;-62
2023/07/27 03:19:03;;;;;;;;;;;;;;;;;;1882768;28;7109;-62
2023/07/27 03:20:00;;;;;;;;;;;;;;;;;;1883304;28;7109;-62
2023/07/27 03:21:01;;;;;;;;;;;;;;;;;;1882505;28;7117;-63
2023/07/27 03:21:58;;;;;;;;;;;;;;;;;;1882805;28;7013;-62
2023/07/27 03:22:55;;;;;;;;;;;;;;;;;;1880560;28;7289;-62
2023/07/27 03:23:53;;;;;;;;;;;;;;;;;;1882496;28;7267;-62
2023/07/27 03:24:50;;;;;;;;;;;;;;;;;;1882415;28;7092;-62
2023/07/27 03:25:48;;;;;;;;;;;;;;;;;;1882866;28;8095;-64
2023/07/27 03:26:45;;;;;;;;;;;;;;;;;;1882562;28;7025;-62
2023/07/27 03:27:43;;;;;;;;;;;;;;;;;;1882417;28;7109;-62
2023/07/27 03:28:40;;;;;;;;;;;;;;;;;;1884991;28;7068;-62
2023/07/27 03:29:41;;;;;;;;;;;;;;;;;;1890104;28;7088;-62
2023/07/27 03:30:39;;;;;;;;;;;;;;;;;;1889867;28;8131;-63
2023/07/27 03:31:38;;;;;;;;;;;;;;;;;;1890073;28;7009;-62
2023/07/27 03:32:37;;;;;;;;;;;;;;;;;;1889991;28;7054;-62
2023/07/27 03:33:35;;;;;;;;;;;;;;;;;;1890848;28;7029;-62
2023/07/27 03:34:32;;;;;;;;;;;;;;;;;;1882483;28;8041;-62
2023/07/27 03:35:30;;;;;;;;;;;;;;;;;;1882451;28;7042;-62
2023/07/27 03:36:27;;;;;;;;;;;;;;;;;;1888109;28;7046;-62
2023/07/27 03:37:25;;;;;;;;;;;;;;;;;;1884043;28;7046;-62
2023/07/27 03:38:22;;;;;;;;;;;;;;;;;;1882260;28;7138;-62
2023/07/27 03:39:19;;;;;;;;;;;;;;;;;;1889979;28;7018;-62
2023/07/27 03:40:17;;;;;;;;;;;;;;;;;;1889967;28;7116;-61
2023/07/27 03:41:15;;;;;;;;;;;;;;;;;;1884384;28;8037;-62
2023/07/27 03:42:12;;;;;;;;;;;;;;;;;;1881931;28;7029;-61
2023/07/27 03:43:10;;;;;;;;;;;;;;;;;;1882598;28;7120;-62
2023/07/27 03:44:11;;;;;;;;;;;;;;;;;;1882567;28;8255;-61
2023/07/27 03:45:09;;;;;;;;;;;;;;;;;;1882297;28;7117;-61
2023/07/27 03:46:06;;;;;;;;;;;;;;;;;;1882954;28;7405;-61
2023/07/27 03:47:04;;;;;;;;;;;;;;;;;;1883863;28;7050;-61
2023/07/27 03:48:01;;;;;;;;;;;;;;;;;;1883490;28;7042;-62
2023/07/27 03:48:59;;;;;;;;;;;;;;;;;;1882587;28;7046;-62
2023/07/27 03:49:56;;;;;;;;;;;;;;;;;;1880752;28;7014;-62
2023/07/27 03:50:53;;;;;;;;;;;;;;;;;;1881961;28;7021;-61
2023/07/27 03:51:51;;;;;;;;;;;;;;;;;;1882401;28;7037;-62
2023/07/27 03:52:48;;;;;;;;;;;;;;;;;;1882983;28;7037;-62
2023/07/27 03:53:46;;;;;;;;;;;;;;;;;;1882439;28;7088;-62
2023/07/27 03:54:43;;;;;;;;;;;;;;;;;;1882953;28;7106;-61
2023/07/27 03:55:41;;;;;;;;;;;;;;;;;;1884604;28;8052;-62
2023/07/27 03:56:38;;;;;;;;;;;;;;;;;;1889476;28;7399;-61
2023/07/27 03:57:36;;;;;;;;;;;;;;;;;;1889522;28;7050;-62
2023/07/27 03:58:34;;;;;;;;;;;;;;;;;;1889934;28;7009;-61
2023/07/27 03:59:32;;;;;;;;;;;;;;;;;;1889854;28;8039;-61
2023/07/27 04:00:29;;;;;;;;;;;;;;;;;;1889871;28;7399;-62
2023/07/27 04:01:27;;;;;;;;;;;;;;;;;;1889873;28;7113;-62
2023/07/27 04:02:24;;;;;;;;;;;;;;;;;;1890326;28;7109;-62
2023/07/27 04:03:22;;;;;;;;;;;;;;;;;;1889493;28;7034;-61
2023/07/27 04:04:20;;;;;;;;;;;;;;;;;;1883609;28;7010;-61
2023/07/27 04:05:20;;;;;;;;;;;;;;;;;;1882819;28;7098;-62
2023/07/27 04:06:18;;;;;;;;;;;;;;;;;;1884729;28;7996;-61
2023/07/27 04:07:15;;;;;;;;;;;;;;;;;;1889685;28;7009;-62
2023/07/27 04:08:12;;;;;;;;;;;;;;;;;;1890271;28;7021;-62
2023/07/27 04:09:10;;;;;;;;;;;;;;;;;;1889810;28;7010;-62
2023/07/27 04:10:07;;;;;;;;;;;;;;;;;;1888969;28;7186;-62
2023/07/27 04:11:05;;;;;;;;;;;;;;;;;;1882912;28;7154;-62
2023/07/27 04:12:02;;;;;;;;;;;;;;;;;;1882030;28;7017;-62
2023/07/27 04:13:00;;;;;;;;;;;;;;;;;;1881980;28;7128;-62
2023/07/27 04:13:57;;;;;;;;;;;;;;;;;;1888748;28;7030;-62
2023/07/27 04:14:57;;;;;;;;;;;;;;;;;;1895815;28;8029;-62
2023/07/27 04:15:54;;;;;;;;;;;;;;;;;;1883510;28;7085;-63
2023/07/27 04:16:51;;;;;;;;;;;;;;;;;;1882097;28;8076;-62
2023/07/27 04:17:49;;;;;;;;;;;;;;;;;;1882462;28;7057;-62
2023/07/27 04:18:47;;;;;;;;;;;;;;;;;;1886046;28;8092;-62
2023/07/27 04:19:44;;;;;;;;;;;;;;;;;;1889680;28;7010;-62
2023/07/27 04:20:41;;;;;;;;;;;;;;;;;;1889581;28;7013;-62
2023/07/27 04:21:39;;;;;;;;;;;;;;;;;;1890107;28;7092;-62
2023/07/27 04:22:36;;;;;;;;;;;;;;;;;;1889875;28;7097;-62
2023/07/27 04:23:34;;;;;;;;;;;;;;;;;;1889573;28;7157;-62
2023/07/27 04:24:31;;;;;;;;;;;;;;;;;;1889613;28;7112;-62
2023/07/27 04:25:29;;;;;;;;;;;;;;;;;;1889508;28;7046;-62
2023/07/27 04:26:26;;;;;;;;;;;;;;;;;;1889539;28;7021;-62
2023/07/27 04:27:24;;;;;;;;;;;;;;;;;;1885430;28;7046;-62
2023/07/27 04:28:21;;;;;;;;;;;;;;;;;;1882531;28;7125;-62
2023/07/27 04:29:18;;;;;;;;;;;;;;;;;;1882671;28;7085;-62
2023/07/27 04:30:16;;;;;;;;;;;;;;;;;;1882948;28;8112;-62
2023/07/27 04:31:14;;;;;;;;;;;;;;;;;;1883601;28;8034;-62
2023/07/27 04:32:11;;;;;;;;;;;;;;;;;;1883678;28;7104;-62
2023/07/27 04:33:08;;;;;;;;;;;;;;;;;;1883660;28;7006;-62
2023/07/27 04:34:06;;;;;;;;;;;;;;;;;;1887557;28;8020;-62
2023/07/27 04:35:04;;;;;;;;;;;;;;;;;;1890925;28;7225;-62
2023/07/27 04:36:01;;;;;;;;;;;;;;;;;;1891672;28;7013;-62
2023/07/27 04:36:58;;;;;;;;;;;;;;;;;;1890779;28;7109;-62
2023/07/27 04:37:56;;;;;;;;;;;;;;;;;;1890830;28;7013;-62
2023/07/27 04:38:53;;;;;;;;;;;;;;;;;;1891482;28;7096;-62
2023/07/27 04:39:50;;;;;;;;;;;;;;;;;;1891072;28;7050;-61
2023/07/27 04:40:48;;;;;;;;;;;;;;;;;;1883804;28;7006;-63
2023/07/27 04:41:45;;;;;;;;;;;;;;;;;;1883803;28;7144;-62
2023/07/27 04:42:43;;;;;;;;;;;;;;;;;;1887890;28;7364;-62
2023/07/27 04:43:40;;;;;;;;;;;;;;;;;;1889142;28;7009;-62
2023/07/27 04:44:37;;;;;;;;;;;;;;;;;;1883812;28;7010;-62
2023/07/27 04:45:35;;;;;;;;;;;;;;;;;;1883769;28;7093;-62
2023/07/27 04:46:32;;;;;;;;;;;;;;;;;;1883882;28;7013;-62
2023/07/27 04:47:30;;;;;;;;;;;;;;;;;;1888196;28;8046;-62
2023/07/27 04:48:27;;;;;;;;;;;;;;;;;;1891121;28;7013;-61
2023/07/27 04:49:25;;;;;;;;;;;;;;;;;;1891315;28;7093;-62
2023/07/27 04:50:22;;;;;;;;;;;;;;;;;;1890641;28;7107;-65
2023/07/27 04:51:20;;;;;;;;;;;;;;;;;;1891458;28;7116;-62
2023/07/27 04:52:17;;;;;;;;;;;;;;;;;;1890548;28;8111;-62
2023/07/27 04:53:14;;;;;;;;;;;;;;;;;;1891197;28;7133;-62
2023/07/27 04:54:12;;;;;;;;;;;;;;;;;;1890903;28;7025;-62
2023/07/27 04:55:09;;;;;;;;;;;;;;;;;;1891471;28;7089;-62
2023/07/27 04:56:06;;;;;;;;;;;;;;;;;;1885162;28;7041;-62
2023/07/27 04:57:04;;;;;;;;;;;;;;;;;;1883850;28;7105;-62
2023/07/27 04:58:01;;;;;;;;;;;;;;;;;;1883314;28;7125;-62
2023/07/27 04:58:59;;;;;;;;;;;;;;;;;;1888732;28;7014;-62
2023/07/27 04:59:56;;;;;;;;;;;;;;;;;;1890791;28;7053;-62
2023/07/27 05:00:54;;;;;;;;;;;;;;;;;;1890726;28;8126;-62
2023/07/27 05:01:51;;;;;;;;;;;;;;;;;;1887829;28;7029;-62
2023/07/27 05:02:49;;;;;;;;;;;;;;;;;;1891183;28;7092;-62
2023/07/27 05:03:46;;;;;;;;;;;;;;;;;;1888001;28;7949;-62
2023/07/27 05:04:44;;;;;;;;;;;;;;;;;;1883708;28;7041;-62
2023/07/27 05:05:42;;;;;;;;;;;;;;;;;;1883457;28;8053;-63
2023/07/27 05:06:39;;;;;;;;;;;;;;;;;;1883492;28;7005;-62
2023/07/27 05:07:37;;;;;;;;;;;;;;;;;;1883545;28;8119;-62
2023/07/27 05:08:34;;;;;;;;;;;;;;;;;;1883591;28;8086;-62
2023/07/27 05:09:32;;;;;;;;;;;;;;;;;;1888366;28;7989;-62
2023/07/27 05:10:29;;;;;;;;;;;;;;;;;;1890564;28;7445;-62
2023/07/27 05:11:28;;;;;;;;;;;;;;;;;;1889957;28;7010;-62
2023/07/27 05:12:25;;;;;;;;;;;;;;;;;;1891031;28;7050;-62
2023/07/27 05:13:22;;;;;;;;;;;;;;;;;;1886694;28;8006;-62
2023/07/27 05:14:20;;;;;;;;;;;;;;;;;;1882776;28;8115;-62
2023/07/27 05:15:17;;;;;;;;;;;;;;;;;;1883899;28;7395;-62
2023/07/27 05:16:15;;;;;;;;;;;;;;;;;;1886388;28;8040;-62
2023/07/27 05:17:12;;;;;;;;;;;;;;;;;;1886389;28;8003;-62
2023/07/27 05:18:10;;;;;;;;;;;;;;;;;;1883127;28;7013;-62
2023/07/27 05:19:07;;;;;;;;;;;;;;;;;;1882379;28;7945;-63
2023/07/27 05:20:05;;;;;;;;;;;;;;;;;;1883685;28;7116;-62
2023/07/27 05:21:02;;;;;;;;;;;;;;;;;;1883345;28;7017;-62
2023/07/27 05:21:59;;;;;;;;;;;;;;;;;;1883597;28;7141;-62
2023/07/27 05:22:57;;;;;;;;;;;;;;;;;;1883514;28;7130;-61
2023/07/27 05:23:54;;;;;;;;;;;;;;;;;;1886244;28;8099;-61
2023/07/27 05:24:52;;;;;;;;;;;;;;;;;;1891339;28;8548;-62
2023/07/27 05:25:49;;;;;;;;;;;;;;;;;;1890786;28;7106;-62
2023/07/27 05:26:46;;;;;;;;;;;;;;;;;;1889790;28;7148;-61
2023/07/27 05:27:44;;;;;;;;;;;;;;;;;;1885651;28;7013;-61
2023/07/27 05:28:41;;;;;;;;;;;;;;;;;;1889649;28;7053;-61
2023/07/27 05:29:38;;;;;;;;;;;;;;;;;;1883710;28;7161;-61
2023/07/27 05:30:36;;;;;;;;;;;;;;;;;;1888033;28;7046;-61
2023/07/27 05:31:33;;;;;;;;;;;;;;;;;;1890848;28;7106;-62
2023/07/27 05:32:31;;;;;;;;;;;;;;;;;;1890980;28;7184;-61
2023/07/27 05:33:29;;;;;;;;;;;;;;;;;;1890432;28;8013;-62
2023/07/27 05:34:26;;;;;;;;;;;;;;;;;;1887269;28;7017;-62
2023/07/27 05:35:23;;;;;;;;;;;;;;;;;;1890371;28;7026;-62
2023/07/27 05:36:21;;;;;;;;;;;;;;;;;;1890297;28;7100;-62
2023/07/27 05:37:18;;;;;;;;;;;;;;;;;;1883606;28;7030;-62
2023/07/27 05:38:17;;;;;;;;;;;;;;;;;;1883713;28;7549;-61
2023/07/27 05:39:14;;;;;;;;;;;;;;;;;;1883674;28;7145;-62
2023/07/27 05:40:15;;;;;;;;;;;;;;;;;;1883451;28;8028;-61
2023/07/27 05:41:13;;;;;;;;;;;;;;;;;;1882597;28;7017;-61
2023/07/27 05:42:10;;;;;;;;;;;;;;;;;;1882566;28;7096;-62
2023/07/27 05:43:08;;;;;;;;;;;;;;;;;;1883637;28;7967;-62
2023/07/27 05:44:05;;;;;;;;;;;;;;;;;;1883541;28;8059;-61
2023/07/27 05:45:03;;;;;;;;;;;;;;;;;;1883681;28;7108;-62
2023/07/27 05:46:00;;;;;;;;;;;;;;;;;;1883177;28;7014;-62
2023/07/27 05:46:57;;;;;;;;;;;;;;;;;;1883683;28;7101;-61
2023/07/27 05:47:55;;;;;;;;;;;;;;;;;;1890561;28;8094;-62
2023/07/27 05:48:53;;;;;;;;;;;;;;;;;;1890926;28;7117;-62
2023/07/27 05:49:50;;;;;;;;;;;;;;;;;;1891068;28;8034;-62
2023/07/27 05:50:47;;;;;;;;;;;;;;;;;;1890515;28;8087;-62
2023/07/27 05:51:45;;;;;;;;;;;;;;;;;;1890380;28;8015;-62
2023/07/27 05:52:42;;;;;;;;;;;;;;;;;;1890178;28;7014;-62
2023/07/27 05:53:39;;;;;;;;;;;;;;;;;;1885910;28;7121;-62
2023/07/27 05:54:37;;;;;;;;;;;;;;;;;;1883227;28;7013;-62
2023/07/27 05:55:34;;;;;;;;;;;;;;;;;;1883358;28;7096;-61
2023/07/27 05:56:32;;;;;;;;;;;;;;;;;;1883487;28;7050;-62
2023/07/27 05:57:29;;;;;;;;;;;;;;;;;;1883134;28;7324;-62
2023/07/27 05:58:27;;;;;;;;;;;;;;;;;;1883351;28;7116;-62
2023/07/27 05:59:24;;;;;;;;;;;;;;;;;;1883172;28;7010;-61
2023/07/27 06:00:21;;;;;;;;;;;;;;;;;;1883222;28;7093;-62
2023/07/27 06:01:19;;;;;;;;;;;;;;;;;;1883590;28;7046;-62
2023/07/27 06:02:16;;;;;;;;;;;;;;;;;;1885653;28;7006;-62
2023/07/27 06:03:14;;;;;;;;;;;;;;;;;;1883342;28;7092;-62
2023/07/27 06:04:11;;;;;;;;;;;;;;;;;;1883518;28;8046;-61
2023/07/27 06:05:09;;;;;;;;;;;;;;;;;;1883252;28;7388;-61
2023/07/27 06:06:06;;;;;;;;;;;;;;;;;;1883136;28;7117;-61
2023/07/27 06:07:05;;;;;;;;;;;;;;;;;;1890150;28;8112;-62
2023/07/27 06:08:02;;;;;;;;;;;;;;;;;;1890311;28;7013;-62
2023/07/27 06:08:59;;;;;;;;;;;;;;;;;;1890600;28;7130;-62
2023/07/27 06:09:57;;;;;;;;;;;;;;;;;;1890690;28;7013;-62
2023/07/27 06:11:06;;;;;;;;;;;;;;;;;;1887190;28;7136;-61
2023/07/27 06:12:11;;;;;;;;;;;;;;;;;;1883589;28;7014;-61
2023/07/27 06:13:08;;;;;;;;;;;;;;;;;;1883172;28;8065;-61
2023/07/27 06:14:06;;;;;;;;;;;;;;;;;;1883343;28;7046;-61
2023/07/27 06:15:03;;;;;;;;;;;;;;;;;;1882558;28;7125;-62
2023/07/27 06:16:01;;;;;;;;;;;;;;;;;;1882942;28;7009;-61
2023/07/27 06:16:58;;;;;;;;;;;;;;;;;;1883360;28;7042;-62
2023/07/27 06:17:56;;;;;;;;;;;;;;;;;;1882890;28;8023;-62
2023/07/27 06:18:53;;;;;;;;;;;;;;;;;;1883380;28;7017;-61
2023/07/27 06:19:51;;;;;;;;;;;;;;;;;;1883270;28;8019;-62
2023/07/27 06:20:48;;;;;;;;;;;;;;;;;;1883368;28;7121;-61
2023/07/27 06:21:45;;;;;;;;;;;;;;;;;;1882637;28;7108;-62
2023/07/27 06:22:43;;;;;;;;;;;;;;;;;;1883376;28;8028;-62
2023/07/27 06:23:40;;;;;;;;;;;;;;;;;;1883277;28;7041;-61
2023/07/27 06:24:38;;;;;;;;;;;;;;;;;;1883315;28;7109;-62
2023/07/27 06:25:35;;;;;;;;;;;;;;;;;;1883408;28;7995;-61
2023/07/27 06:26:33;;;;;;;;;;;;;;;;;;1883517;28;7117;-62
2023/07/27 06:27:31;;;;;;;;;;;;;;;;;;1885759;28;7092;-62
2023/07/27 06:28:28;;;;;;;;;;;;;;;;;;1890339;28;7081;-62
2023/07/27 06:29:26;;;;;;;;;;;;;;;;;;1883691;28;7092;-62
2023/07/27 06:30:23;;;;;;;;;;;;;;;;;;1883456;28;7096;-62
2023/07/27 06:31:20;;;;;;;;;;;;;;;;;;1883285;28;8034;-62
2023/07/27 06:32:18;;;;;;;;;;;;;;;;;;1883735;28;7120;-62
2023/07/27 06:33:16;;;;;;;;;;;;;;;;;;1883447;28;7042;-63
2023/07/27 06:34:13;;;;;;;;;;;;;;;;;;1885618;28;9590;-62
2023/07/27 06:35:10;;;;;;;;;;;;;;;;;;1886813;28;7093;-62
2023/07/27 06:36:08;;;;;;;;;;;;;;;;;;1888646;28;7372;-62
2023/07/27 06:37:07;;;;;;;;;;;;;;;;;;1883277;28;7093;-62
2023/07/27 06:38:04;;;;;;;;;;;;;;;;;;1882840;28;7009;-62
2023/07/27 06:39:01;;;;;;;;;;;;;;;;;;1883794;28;7009;-62
2023/07/27 06:39:59;;;;;;;;;;;;;;;;;;1882440;28;7025;-62
2023/07/27 06:40:57;;;;;;;;;;;;;;;;;;1882886;28;7014;-62
2023/07/27 06:41:54;;;;;;;;;;;;;;;;;;1883045;28;8056;-62
2023/07/27 06:42:51;;;;;;;;;;;;;;;;;;1882892;28;7129;-63
2023/07/27 06:43:49;;;;;;;;;;;;;;;;;;1883302;28;7317;-62
2023/07/27 06:44:46;;;;;;;;;;;;;;;;;;1890140;28;7037;-62
2023/07/27 06:45:44;;;;;;;;;;;;;;;;;;1883744;28;7100;-62